Aviation Digital Data Service (ADDS)

Output produced by METARs form (1546 UTC 03 June 2015)
found at http://aviationweather.gov/adds/metars/
 
KRUT 031138Z 0312/0412 35005KT P6SM OVC010 
     FM031300 32006KT P6SM FEW030 
     FM040000 14009KT P6SM SKC AMD LTD TO CLD VIS AND WIND